Time;durP1;ratioP1;P1;durP2;ratioP2;P2;SDS_P1;SDS_P2;PMS_P1;PMS_P2;Temp;Humidity;BMP_temperature;BMP_pressure;BME280_temperature;BME280_humidity;BME280_pressure;Samples;Min_cycle;Max_cycle;Signal;HPM_P1;HPM_P2
2023/08/16 00:00:34;;;;;;;9.45;6.63;;;;;;;;;;2547650;23;20049;-96
2023/08/16 00:01:35;;;;;;;8.90;6.30;;;;;;;;;;2547445;23;20047;-96
2023/08/16 00:02:35;;;;;;;10.80;6.75;;;;;;;;;;2559282;23;20435;-96
2023/08/16 00:03:37;;;;;;;10.88;6.30;;;;;;;;;;2559782;23;20033;-95
2023/08/16 00:04:37;;;;;;;12.23;7.28;;;;;;;;;;2560366;23;20008;-95
2023/08/16 00:05:41;;;;;;;9.02;7.03;;;;;;;;;;2562650;23;20001;-96
2023/08/16 00:06:42;;;;;;;8.80;6.25;;;;;;;;;;2562472;23;19996;-95
2023/08/16 00:07:43;;;;;;;8.82;6.45;;;;;;;;;;2548533;23;20088;-96
2023/08/16 00:08:43;;;;;;;11.27;7.03;;;;;;;;;;2560002;23;20009;-96
2023/08/16 00:09:44;;;;;;;9.27;6.85;;;;;;;;;;2559374;23;20025;-96
2023/08/16 00:10:44;;;;;;;9.45;6.93;;;;;;;;;;2546618;23;20012;-95
2023/08/16 00:11:45;;;;;;;7.22;6.22;;;;;;;;;;2545254;23;20087;-95
2023/08/16 00:12:50;;;;;;;10.52;6.55;;;;;;;;;;2301066;23;10250539;-96
2023/08/16 00:13:50;;;;;;;10.18;6.47;;;;;;;;;;2564731;23;20642;-96
2023/08/16 00:14:51;;;;;;;9.65;7.10;;;;;;;;;;2569193;23;20009;-95
2023/08/16 00:15:51;;;;;;;10.43;6.40;;;;;;;;;;2557496;23;20016;-96
2023/08/16 00:16:53;;;;;;;11.13;6.80;;;;;;;;;;2557473;23;20001;-95
2023/08/16 00:17:54;;;;;;;10.63;6.88;;;;;;;;;;2550963;23;20056;-96
2023/08/16 00:18:54;;;;;;;7.55;6.28;;;;;;;;;;2559507;23;20028;-96
2023/08/16 00:19:55;;;;;;;8.73;6.78;;;;;;;;;;2559012;23;20036;-96
2023/08/16 00:20:55;;;;;;;10.07;6.72;;;;;;;;;;2533856;23;20033;-96
2023/08/16 00:21:56;;;;;;;9.38;7.22;;;;;;;;;;2546033;23;20017;-95
2023/08/16 00:22:56;;;;;;;8.75;7.18;;;;;;;;;;2546202;23;20009;-96
2023/08/16 00:23:57;;;;;;;12.13;7.22;;;;;;;;;;2553662;23;20004;-96
2023/08/16 00:24:57;;;;;;;13.25;7.60;;;;;;;;;;2569739;23;20024;-96
2023/08/16 00:25:58;;;;;;;9.85;7.30;;;;;;;;;;2549238;23;20014;-96
2023/08/16 00:26:58;;;;;;;11.68;7.53;;;;;;;;;;2546021;23;20013;-96
2023/08/16 00:27:59;;;;;;;10.77;7.40;;;;;;;;;;2558558;23;20027;-96
2023/08/16 00:29:00;;;;;;;11.82;7.28;;;;;;;;;;2545912;23;20009;-96
2023/08/16 00:30:00;;;;;;;8.75;6.55;;;;;;;;;;2546008;23;20025;-95
2023/08/16 00:31:01;;;;;;;11.68;7.80;;;;;;;;;;2546045;23;20033;-95
2023/08/16 00:32:04;;;;;;;12.57;8.10;;;;;;;;;;2545490;23;20006;-96
2023/08/16 00:33:05;;;;;;;12.27;8.43;;;;;;;;;;2558540;23;20005;-96
2023/08/16 00:34:05;;;;;;;11.60;8.35;;;;;;;;;;2558273;23;20115;-96
2023/08/16 00:35:09;;;;;;;12.63;8.15;;;;;;;;;;2557872;23;20017;-96
2023/08/16 00:36:09;;;;;;;11.40;8.23;;;;;;;;;;2545945;23;20009;-95
2023/08/16 00:37:10;;;;;;;12.30;8.05;;;;;;;;;;2545366;23;20032;-95
2023/08/16 00:38:10;;;;;;;11.30;8.05;;;;;;;;;;2545610;23;20017;-95
2023/08/16 00:39:10;;;;;;;10.43;7.57;;;;;;;;;;2545603;23;20013;-96
2023/08/16 00:40:11;;;;;;;13.80;7.88;;;;;;;;;;2545614;23;20119;-95
2023/08/16 00:41:12;;;;;;;12.63;7.55;;;;;;;;;;2557708;23;20009;-95
2023/08/16 00:42:13;;;;;;;13.70;7.90;;;;;;;;;;2560984;23;20537;-94
2023/08/16 00:43:13;;;;;;;13.35;7.95;;;;;;;;;;2555740;23;20013;-95
2023/08/16 00:44:14;;;;;;;11.32;7.90;;;;;;;;;;2556996;23;20033;-95
2023/08/16 00:45:15;;;;;;;15.73;8.13;;;;;;;;;;2569732;23;19997;-96
2023/08/16 00:46:17;;;;;;;14.98;7.35;;;;;;;;;;2557282;23;19994;-95
2023/08/16 00:47:18;;;;;;;10.77;7.60;;;;;;;;;;2565005;23;20013;-95
2023/08/16 00:48:19;;;;;;;12.48;7.57;;;;;;;;;;2562505;23;20158;-96
2023/08/16 00:49:19;;;;;;;11.35;7.90;;;;;;;;;;2562689;23;20009;-96
2023/08/16 00:50:23;;;;;;;15.85;7.82;;;;;;;;;;2115032;23;10240395;-96
2023/08/16 00:51:24;;;;;;;13.05;7.68;;;;;;;;;;2548898;23;20009;-95
2023/08/16 00:52:24;;;;;;;12.32;7.60;;;;;;;;;;2547126;23;20068;-96
2023/08/16 00:53:28;;;;;;;13.70;8.00;;;;;;;;;;2559648;23;20001;-96
2023/08/16 00:54:29;;;;;;;12.05;8.23;;;;;;;;;;2546517;23;20400;-96
2023/08/16 00:55:30;;;;;;;10.90;6.97;;;;;;;;;;2545678;23;20021;-96
2023/08/16 00:56:31;;;;;;;12.30;8.07;;;;;;;;;;2558116;23;20428;-96
2023/08/16 00:57:31;;;;;;;15.48;8.02;;;;;;;;;;2546086;23;20027;-96
2023/08/16 00:58:32;;;;;;;11.75;8.00;;;;;;;;;;2547416;23;20001;-96
2023/08/16 00:59:33;;;;;;;13.23;7.13;;;;;;;;;;2560291;23;20001;-96
2023/08/16 01:00:34;;;;;;;12.90;7.85;;;;;;;;;;2568685;23;19997;-96
2023/08/16 01:01:34;;;;;;;11.75;7.13;;;;;;;;;;2566386;23;19989;-96
2023/08/16 01:02:35;;;;;;;11.63;7.05;;;;;;;;;;2554919;23;20012;-96
2023/08/16 01:03:36;;;;;;;13.10;7.53;;;;;;;;;;2554057;23;20460;-96
2023/08/16 01:04:37;;;;;;;13.25;7.60;;;;;;;;;;2551475;23;20001;-96
2023/08/16 01:05:37;;;;;;;12.50;7.30;;;;;;;;;;2549211;23;20084;-96
2023/08/16 01:06:38;;;;;;;16.80;9.52;;;;;;;;;;2564508;23;20020;-96
2023/08/16 01:07:38;;;;;;;12.13;7.65;;;;;;;;;;2559767;23;20027;-96
2023/08/16 01:08:39;;;;;;;12.27;7.60;;;;;;;;;;2548957;23;20423;-96
2023/08/16 01:09:40;;;;;;;12.45;7.60;;;;;;;;;;2549549;23;20009;-95
2023/08/16 01:11:07;;;;;;;9.52;7.30;;;;;;;;;;2548021;23;20032;-96
2023/08/16 01:12:18;;;;;;;12.63;7.47;;;;;;;;;;2562330;23;20008;-96
2023/08/16 01:13:28;;;;;;;13.38;7.93;;;;;;;;;;2551506;23;20424;-96
2023/08/16 01:15:03;;;;;;;9.40;7.15;;;;;;;;;;2547398;23;20021;-95
2023/08/16 01:16:08;;;;;;;14.52;7.25;;;;;;;;;;2536483;23;20047;-95
2023/08/16 01:17:09;;;;;;;11.73;7.35;;;;;;;;;;2558583;23;20083;-96
2023/08/16 01:18:11;;;;;;;12.63;7.35;;;;;;;;;;2570333;23;20504;-96
2023/08/16 01:19:28;;;;;;;12.02;7.13;;;;;;;;;;2546498;23;20007;-96
2023/08/16 01:20:30;;;;;;;10.05;7.07;;;;;;;;;;2553797;23;20463;-95
2023/08/16 01:21:38;;;;;;;9.20;6.97;;;;;;;;;;2557495;23;20035;-95
2023/08/16 01:22:54;;;;;;;15.88;7.95;;;;;;;;;;2546591;23;20424;-95
2023/08/16 01:23:59;;;;;;;11.93;6.93;;;;;;;;;;2548907;23;20125;-94
2023/08/16 01:25:02;;;;;;;8.73;7.05;;;;;;;;;;2558830;23;20011;-95
2023/08/16 01:26:10;;;;;;;9.20;6.80;;;;;;;;;;2557594;23;20009;-95
2023/08/16 01:27:11;;;;;;;12.27;7.03;;;;;;;;;;2558920;23;20080;-95
2023/08/16 01:28:12;;;;;;;8.80;6.80;;;;;;;;;;2570032;23;20024;-94
2023/08/16 01:29:13;;;;;;;10.95;7.07;;;;;;;;;;2570360;23;20052;-94
2023/08/16 01:30:15;;;;;;;10.27;6.68;;;;;;;;;;2557716;23;20463;-94
2023/08/16 01:31:16;;;;;;;9.35;7.20;;;;;;;;;;2557777;23;20009;-95
2023/08/16 01:32:16;;;;;;;10.52;7.05;;;;;;;;;;2545343;23;20169;-95
2023/08/16 01:33:17;;;;;;;9.25;6.65;;;;;;;;;;2545397;23;20009;-95
2023/08/16 01:34:17;;;;;;;10.75;7.03;;;;;;;;;;2545205;23;20010;-96
2023/08/16 01:35:18;;;;;;;13.02;7.18;;;;;;;;;;2557383;23;20009;-95
2023/08/16 01:36:19;;;;;;;8.95;6.82;;;;;;;;;;2557718;23;20097;-95
2023/08/16 01:37:19;;;;;;;13.45;7.20;;;;;;;;;;2545476;23;20339;-94
2023/08/16 01:38:20;;;;;;;10.30;7.35;;;;;;;;;;2557194;23;20019;-94
2023/08/16 01:39:20;;;;;;;10.63;6.35;;;;;;;;;;2570197;23;20061;-94
2023/08/16 01:40:21;;;;;;;10.73;7.43;;;;;;;;;;2557443;23;20117;-94
2023/08/16 01:41:29;;;;;;;9.93;6.88;;;;;;;;;;2544881;23;20021;-94
2023/08/16 01:42:35;;;;;;;9.02;7.43;;;;;;;;;;2548071;23;20012;-95
2023/08/16 01:43:37;;;;;;;11.65;7.20;;;;;;;;;;2548606;23;19993;-96
2023/08/16 01:44:38;;;;;;;11.70;7.57;;;;;;;;;;2547477;23;20008;-96
2023/08/16 01:45:39;;;;;;;9.15;6.68;;;;;;;;;;2548771;23;20017;-96
2023/08/16 01:46:44;;;;;;;9.32;7.00;;;;;;;;;;2546446;23;20037;-96
2023/08/16 01:47:47;;;;;;;8.80;5.93;;;;;;;;;;2559273;23;20009;-95
2023/08/16 01:48:48;;;;;;;11.73;7.22;;;;;;;;;;2546028;23;20104;-94
2023/08/16 01:49:50;;;;;;;9.48;7.10;;;;;;;;;;2530597;23;20025;-96
2023/08/16 01:50:51;;;;;;;11.40;7.35;;;;;;;;;;2542451;23;20057;-95
2023/08/16 01:51:52;;;;;;;12.18;8.10;;;;;;;;;;2548114;23;20040;-94
2023/08/16 01:52:53;;;;;;;8.45;7.28;;;;;;;;;;2562001;23;20423;-93
2023/08/16 01:53:54;;;;;;;10.40;7.68;;;;;;;;;;2576690;23;20005;-94
2023/08/16 01:54:54;;;;;;;11.00;7.85;;;;;;;;;;2562186;23;20055;-94
2023/08/16 01:55:54;;;;;;;9.95;7.85;;;;;;;;;;2558941;23;20454;-95
2023/08/16 01:56:55;;;;;;;10.68;8.25;;;;;;;;;;2565531;23;20064;-94
2023/08/16 01:57:55;;;;;;;9.38;7.88;;;;;;;;;;2561258;23;20005;-96
2023/08/16 01:58:56;;;;;;;9.50;7.53;;;;;;;;;;2568679;23;20018;-96
2023/08/16 01:59:56;;;;;;;12.15;8.25;;;;;;;;;;2556784;23;20025;-95
2023/08/16 02:00:57;;;;;;;11.30;8.13;;;;;;;;;;2545389;23;20013;-95
2023/08/16 02:01:57;;;;;;;10.73;7.95;;;;;;;;;;2545283;23;20006;-95
2023/08/16 02:02:57;;;;;;;11.43;8.98;;;;;;;;;;2545537;23;20534;-95
2023/08/16 02:03:59;;;;;;;10.93;8.23;;;;;;;;;;2545337;23;20009;-93
2023/08/16 02:04:59;;;;;;;13.10;8.90;;;;;;;;;;2545736;23;20113;-94
2023/08/16 02:06:00;;;;;;;12.48;8.77;;;;;;;;;;2544928;23;20017;-94
2023/08/16 02:07:00;;;;;;;11.25;8.30;;;;;;;;;;2557427;23;20095;-94
2023/08/16 02:08:01;;;;;;;11.40;9.10;;;;;;;;;;2558746;23;20036;-96
2023/08/16 02:09:02;;;;;;;13.35;9.50;;;;;;;;;;2569892;23;20008;-94
2023/08/16 02:10:02;;;;;;;11.75;9.00;;;;;;;;;;2558026;23;20005;-96
2023/08/16 02:11:03;;;;;;;10.93;8.43;;;;;;;;;;2544994;23;20475;-95
2023/08/16 02:12:04;;;;;;;14.90;9.30;;;;;;;;;;2545270;23;20033;-95
2023/08/16 02:13:04;;;;;;;12.38;9.13;;;;;;;;;;2544701;23;20430;-94
2023/08/16 02:14:04;;;;;;;13.40;9.57;;;;;;;;;;2545328;23;20001;-95
2023/08/16 02:15:05;;;;;;;11.55;10.10;;;;;;;;;;2545619;23;20009;-95
2023/08/16 02:16:06;;;;;;;12.40;9.18;;;;;;;;;;2544962;23;20068;-94
2023/08/16 02:17:06;;;;;;;11.30;8.73;;;;;;;;;;2544379;23;20009;-95
2023/08/16 02:18:10;;;;;;;11.05;9.85;;;;;;;;;;2560003;23;20447;-94
2023/08/16 02:19:11;;;;;;;11.57;9.80;;;;;;;;;;2557833;23;20070;-95
2023/08/16 02:20:12;;;;;;;13.68;9.32;;;;;;;;;;2545569;23;20100;-95
2023/08/16 02:21:13;;;;;;;11.38;9.20;;;;;;;;;;2557536;23;20011;-95
2023/08/16 02:22:13;;;;;;;12.70;9.57;;;;;;;;;;2545099;23;20005;-96
2023/08/16 02:23:13;;;;;;;11.90;9.68;;;;;;;;;;2545301;23;20040;-96
2023/08/16 02:24:15;;;;;;;13.15;9.55;;;;;;;;;;2558804;23;20415;-96
2023/08/16 02:25:15;;;;;;;13.35;9.25;;;;;;;;;;2557614;23;20359;-96
2023/08/16 02:26:15;;;;;;;12.50;9.73;;;;;;;;;;2557542;23;20033;-96
2023/08/16 02:27:16;;;;;;;14.60;9.85;;;;;;;;;;2544954;23;20013;-96
2023/08/16 02:28:16;;;;;;;11.48;9.52;;;;;;;;;;2546466;23;20061;-96
2023/08/16 02:29:17;;;;;;;13.65;9.70;;;;;;;;;;2545226;23;20356;-96
2023/08/16 02:30:17;;;;;;;12.40;9.93;;;;;;;;;;2550099;23;20029;-94
2023/08/16 02:31:18;;;;;;;11.13;9.00;;;;;;;;;;2544917;23;20017;-95
2023/08/16 02:32:18;;;;;;;12.77;9.35;;;;;;;;;;2545141;23;20009;-96
2023/08/16 02:33:19;;;;;;;12.07;9.27;;;;;;;;;;2546486;23;20006;-94
2023/08/16 02:34:19;;;;;;;10.55;9.30;;;;;;;;;;2558494;23;20016;-95
2023/08/16 02:35:19;;;;;;;14.90;9.60;;;;;;;;;;2569943;23;20406;-96
2023/08/16 02:36:20;;;;;;;12.85;9.73;;;;;;;;;;2557477;23;20009;-95
2023/08/16 02:37:20;;;;;;;13.63;9.13;;;;;;;;;;2557383;23;20063;-96
2023/08/16 02:38:21;;;;;;;10.43;9.27;;;;;;;;;;2557612;23;20035;-95
2023/08/16 02:39:21;;;;;;;10.32;9.05;;;;;;;;;;2557475;23;20420;-94
2023/08/16 02:40:21;;;;;;;13.45;10.07;;;;;;;;;;2557581;23;20040;-95
2023/08/16 02:41:22;;;;;;;11.18;9.80;;;;;;;;;;2545117;23;20009;-94
2023/08/16 02:42:23;;;;;;;11.80;10.02;;;;;;;;;;2545640;23;20162;-96
2023/08/16 02:43:23;;;;;;;15.77;10.48;;;;;;;;;;2546082;23;20010;-96
2023/08/16 02:44:24;;;;;;;12.65;9.70;;;;;;;;;;2109941;23;10433325;-95
2023/08/16 02:45:24;;;;;;;13.43;9.15;;;;;;;;;;2573142;23;20020;-96
2023/08/16 02:46:25;;;;;;;10.57;9.50;;;;;;;;;;2568647;23;20004;-96
2023/08/16 02:47:26;;;;;;;12.85;9.45;;;;;;;;;;2552760;23;20001;-96
2023/08/16 02:48:28;;;;;;;14.30;10.00;;;;;;;;;;2559449;23;20017;-96
2023/08/16 02:49:28;;;;;;;13.38;10.50;;;;;;;;;;2541273;23;20044;-96
2023/08/16 02:50:29;;;;;;;16.65;10.48;;;;;;;;;;2546234;23;20543;-96
2023/08/16 02:51:30;;;;;;;14.07;10.30;;;;;;;;;;2557415;23;20505;-95
2023/08/16 02:52:30;;;;;;;11.02;9.70;;;;;;;;;;2557617;23;19997;-96
2023/08/16 02:53:31;;;;;;;12.43;10.63;;;;;;;;;;2569304;23;19996;-95
2023/08/16 02:54:31;;;;;;;11.23;10.02;;;;;;;;;;2545332;23;20351;-96
2023/08/16 02:55:32;;;;;;;11.32;10.13;;;;;;;;;;2544660;23;20036;-96
2023/08/16 02:56:32;;;;;;;12.02;9.50;;;;;;;;;;2557384;23;20036;-95
2023/08/16 02:57:34;;;;;;;11.50;9.88;;;;;;;;;;2544827;23;20002;-95
2023/08/16 02:58:34;;;;;;;12.98;10.38;;;;;;;;;;2545283;23;20028;-94
2023/08/16 02:59:46;;;;;;;12.60;10.38;;;;;;;;;;2560542;23;19993;-95
2023/08/16 03:00:50;;;;;;;12.98;10.32;;;;;;;;;;2557429;23;20009;-94
2023/08/16 03:01:50;;;;;;;13.80;9.88;;;;;;;;;;2545674;23;20006;-94
2023/08/16 03:02:51;;;;;;;14.52;9.07;;;;;;;;;;2545148;23;20063;-94
2023/08/16 03:03:52;;;;;;;14.88;10.57;;;;;;;;;;2544898;23;20083;-96
2023/08/16 03:04:52;;;;;;;13.93;10.55;;;;;;;;;;2545489;23;20009;-96
2023/08/16 03:05:53;;;;;;;13.60;10.07;;;;;;;;;;2544978;23;20490;-96
2023/08/16 03:10:23;;;;;;;12.75;9.95;;;;;;;;;;2571055;23;20016;-96
2023/08/16 03:11:23;;;;;;;13.23;10.32;;;;;;;;;;2557842;23;20005;-95
2023/08/16 03:12:24;;;;;;;12.32;9.80;;;;;;;;;;2545811;23;20447;-95
2023/08/16 03:13:24;;;;;;;12.70;10.13;;;;;;;;;;2545918;23;20005;-95
2023/08/16 03:14:25;;;;;;;12.23;9.52;;;;;;;;;;2545751;23;20009;-95
2023/08/16 03:15:25;;;;;;;13.25;9.95;;;;;;;;;;2558163;23;20367;-96
2023/08/16 03:16:26;;;;;;;12.98;9.65;;;;;;;;;;2558176;23;20447;-96
2023/08/16 03:17:27;;;;;;;14.70;10.30;;;;;;;;;;2545239;23;20162;-96
2023/08/16 03:18:28;;;;;;;12.30;9.18;;;;;;;;;;2558111;23;20007;-96
2023/08/16 03:19:28;;;;;;;14.38;10.13;;;;;;;;;;2558391;23;20486;-95
2023/08/16 03:20:29;;;;;;;11.38;9.55;;;;;;;;;;2545768;23;20089;-96
2023/08/16 03:21:30;;;;;;;12.00;9.30;;;;;;;;;;2558352;23;20009;-96
2023/08/16 03:22:31;;;;;;;12.05;9.50;;;;;;;;;;2557977;23;20009;-96
2023/08/16 03:23:31;;;;;;;15.50;9.65;;;;;;;;;;2108792;23;10294536;-95
2023/08/16 03:24:31;;;;;;;11.85;10.18;;;;;;;;;;2121267;23;10266989;-96
2023/08/16 03:25:32;;;;;;;13.98;9.45;;;;;;;;;;2570698;23;20040;-95
2023/08/16 03:26:32;;;;;;;11.35;9.27;;;;;;;;;;2557999;23;20093;-94
2023/08/16 03:27:34;;;;;;;12.95;9.85;;;;;;;;;;2562265;23;20513;-95
2023/08/16 03:28:35;;;;;;;14.02;9.48;;;;;;;;;;2558562;23;20084;-94
2023/08/16 03:29:35;;;;;;;11.48;9.13;;;;;;;;;;2545617;23;20014;-95
2023/08/16 03:30:36;;;;;;;12.23;9.52;;;;;;;;;;2560754;23;20532;-96
2023/08/16 03:31:37;;;;;;;13.35;9.30;;;;;;;;;;2574238;23;20007;-94
2023/08/16 03:32:37;;;;;;;12.13;10.10;;;;;;;;;;2559784;23;20410;-95
2023/08/16 03:33:37;;;;;;;11.23;8.93;;;;;;;;;;2568303;23;20016;-93
2023/08/16 03:34:38;;;;;;;11.15;9.30;;;;;;;;;;2567141;23;20090;-94
2023/08/16 03:35:38;;;;;;;10.30;9.15;;;;;;;;;;2548145;23;20006;-94
2023/08/16 03:36:39;;;;;;;13.20;9.23;;;;;;;;;;2557921;23;20475;-95
2023/08/16 03:37:40;;;;;;;11.98;9.75;;;;;;;;;;2558092;23;20005;-96
2023/08/16 03:38:41;;;;;;;12.48;9.13;;;;;;;;;;2558075;23;20088;-95
2023/08/16 03:39:41;;;;;;;11.57;9.88;;;;;;;;;;2558567;23;20440;-95
2023/08/16 03:40:43;;;;;;;14.85;9.75;;;;;;;;;;2557978;23;20001;-96
2023/08/16 03:41:43;;;;;;;11.75;9.20;;;;;;;;;;2570400;23;20016;-95
2023/08/16 03:42:44;;;;;;;10.82;8.90;;;;;;;;;;2557901;23;20346;-95
2023/08/16 03:43:44;;;;;;;12.82;9.07;;;;;;;;;;2558081;23;20096;-95
2023/08/16 03:44:45;;;;;;;12.35;10.02;;;;;;;;;;2558199;23;19997;-93
2023/08/16 03:45:48;;;;;;;12.10;9.15;;;;;;;;;;2545466;23;20198;-95
2023/08/16 03:46:48;;;;;;;14.63;9.55;;;;;;;;;;2546243;23;20068;-95
2023/08/16 03:47:49;;;;;;;13.52;10.15;;;;;;;;;;2545860;23;20117;-94
2023/08/16 03:48:49;;;;;;;11.73;9.65;;;;;;;;;;2557985;23;20001;-95
2023/08/16 03:49:50;;;;;;;13.90;9.18;;;;;;;;;;2559643;23;20039;-95
2023/08/16 03:50:50;;;;;;;11.63;9.55;;;;;;;;;;2545964;23;20481;-95
2023/08/16 03:51:51;;;;;;;13.05;9.68;;;;;;;;;;2545873;23;20052;-94
2023/08/16 03:52:51;;;;;;;11.45;9.52;;;;;;;;;;2560069;23;19996;-94
2023/08/16 03:53:52;;;;;;;11.68;9.45;;;;;;;;;;2558131;23;20005;-96
2023/08/16 03:54:53;;;;;;;11.52;8.60;;;;;;;;;;2557995;23;20001;-96
2023/08/16 03:55:58;;;;;;;11.15;8.82;;;;;;;;;;2570770;23;20059;-95
2023/08/16 03:56:58;;;;;;;13.50;9.80;;;;;;;;;;2546597;23;20351;-96
2023/08/16 03:57:59;;;;;;;12.68;9.27;;;;;;;;;;2557837;23;20016;-94
2023/08/16 03:58:59;;;;;;;11.63;8.75;;;;;;;;;;2557903;23;20036;-96
2023/08/16 04:00:00;;;;;;;11.88;9.13;;;;;;;;;;2110215;23;10480476;-96
2023/08/16 04:01:00;;;;;;;13.15;8.90;;;;;;;;;;2558084;23;20024;-96
2023/08/16 04:02:01;;;;;;;14.10;9.25;;;;;;;;;;2545717;23;20476;-94
2023/08/16 04:03:03;;;;;;;10.70;8.88;;;;;;;;;;2558044;23;20001;-94
2023/08/16 04:04:04;;;;;;;13.32;9.27;;;;;;;;;;2558215;23;20009;-94
2023/08/16 04:05:10;;;;;;;12.98;9.32;;;;;;;;;;2559609;23;20017;-95
2023/08/16 04:06:11;;;;;;;12.02;9.40;;;;;;;;;;2558034;23;20005;-96
2023/08/16 04:07:11;;;;;;;12.68;8.75;;;;;;;;;;2557810;23;20009;-95
2023/08/16 04:08:12;;;;;;;15.02;9.68;;;;;;;;;;2569988;23;20379;-94
2023/08/16 04:09:13;;;;;;;11.93;8.93;;;;;;;;;;2546394;23;20002;-96
2023/08/16 04:10:14;;;;;;;10.80;9.30;;;;;;;;;;2557470;23;20387;-93
2023/08/16 04:11:15;;;;;;;12.45;8.52;;;;;;;;;;2571281;23;20001;-94
2023/08/16 04:12:15;;;;;;;11.65;8.70;;;;;;;;;;2571390;23;20004;-93
2023/08/16 04:13:17;;;;;;;13.25;8.75;;;;;;;;;;2557784;23;20001;-94
2023/08/16 04:14:17;;;;;;;11.18;8.88;;;;;;;;;;2545340;23;20356;-95
2023/08/16 04:15:18;;;;;;;12.57;9.07;;;;;;;;;;2545222;23;20096;-95
2023/08/16 04:16:18;;;;;;;13.45;9.45;;;;;;;;;;2545385;23;20010;-95
2023/08/16 04:17:18;;;;;;;10.05;8.30;;;;;;;;;;2545429;23;20402;-95
2023/08/16 04:18:19;;;;;;;11.38;8.68;;;;;;;;;;2558192;23;20005;-95
2023/08/16 04:19:19;;;;;;;10.60;8.50;;;;;;;;;;2558331;23;19997;-94
2023/08/16 04:20:20;;;;;;;12.20;8.85;;;;;;;;;;2141124;23;10001180;-95
2023/08/16 04:21:20;;;;;;;12.70;9.52;;;;;;;;;;2569170;23;19992;-95
2023/08/16 04:22:21;;;;;;;11.95;8.90;;;;;;;;;;2557137;23;20005;-95
2023/08/16 04:23:22;;;;;;;12.25;9.05;;;;;;;;;;2563712;23;20009;-95
2023/08/16 04:24:22;;;;;;;12.48;8.77;;;;;;;;;;2570710;23;20008;-95
2023/08/16 04:25:23;;;;;;;12.60;9.20;;;;;;;;;;2548798;23;19998;-96
2023/08/16 04:26:23;;;;;;;11.50;8.75;;;;;;;;;;2558727;23;20001;-95
2023/08/16 04:27:24;;;;;;;11.60;8.63;;;;;;;;;;2558236;23;20551;-95
2023/08/16 04:28:24;;;;;;;11.20;8.75;;;;;;;;;;2558558;23;20463;-95
2023/08/16 04:29:24;;;;;;;10.75;8.55;;;;;;;;;;2545579;23;20017;-96
2023/08/16 04:30:25;;;;;;;11.07;9.18;;;;;;;;;;2546187;23;20084;-96
2023/08/16 04:31:26;;;;;;;12.00;8.55;;;;;;;;;;2550644;23;20001;-95
2023/08/16 04:32:26;;;;;;;12.07;9.10;;;;;;;;;;2560562;23;20001;-94
2023/08/16 04:33:26;;;;;;;10.73;8.45;;;;;;;;;;2561258;23;20092;-94
2023/08/16 04:34:27;;;;;;;12.70;9.20;;;;;;;;;;2561010;23;19997;-94
2023/08/16 04:35:28;;;;;;;11.50;8.85;;;;;;;;;;2555298;23;20519;-96
2023/08/16 04:36:28;;;;;;;11.95;8.25;;;;;;;;;;2566674;23;19995;-96
2023/08/16 04:37:29;;;;;;;13.73;8.75;;;;;;;;;;2581923;23;20008;-95
2023/08/16 04:38:29;;;;;;;11.18;9.27;;;;;;;;;;2566762;23;20030;-96
2023/08/16 04:39:30;;;;;;;12.75;8.55;;;;;;;;;;2562268;23;20001;-96
2023/08/16 04:40:33;;;;;;;13.25;9.52;;;;;;;;;;2559567;23;20001;-96
2023/08/16 04:41:33;;;;;;;10.00;8.75;;;;;;;;;;2548061;23;20420;-95
2023/08/16 04:42:35;;;;;;;12.75;9.30;;;;;;;;;;2547294;23;20009;-96
2023/08/16 04:43:35;;;;;;;9.73;8.48;;;;;;;;;;2549096;23;20008;-96
2023/08/16 04:44:36;;;;;;;13.48;9.23;;;;;;;;;;2548017;23;20020;-96
2023/08/16 04:45:36;;;;;;;11.77;8.55;;;;;;;;;;2547371;23;20386;-96
2023/08/16 04:46:38;;;;;;;13.07;9.27;;;;;;;;;;2559329;23;20065;-96
2023/08/16 04:47:39;;;;;;;12.90;8.88;;;;;;;;;;2558574;23;20020;-96
2023/08/16 04:48:41;;;;;;;13.00;9.15;;;;;;;;;;2546412;23;20005;-96
2023/08/16 04:49:44;;;;;;;13.68;9.35;;;;;;;;;;2546202;23;20048;-95
2023/08/16 04:50:45;;;;;;;12.32;9.30;;;;;;;;;;2562098;23;20001;-96
2023/08/16 04:51:45;;;;;;;11.02;8.57;;;;;;;;;;2559265;23;20068;-96
2023/08/16 04:52:46;;;;;;;13.63;8.45;;;;;;;;;;2547971;23;20005;-96
2023/08/16 04:53:50;;;;;;;11.80;8.85;;;;;;;;;;2564890;23;20027;-95
2023/08/16 04:58:54;;;;;;;14.35;9.13;;;;;;;;;;2575625;23;20027;-95
2023/08/16 04:59:54;;;;;;;14.80;8.68;;;;;;;;;;2557859;23;20343;-96
2023/08/16 05:00:55;;;;;;;12.82;8.90;;;;;;;;;;2559823;23;20001;-95
2023/08/16 05:01:55;;;;;;;13.93;10.40;;;;;;;;;;2557771;23;20087;-94
2023/08/16 05:02:56;;;;;;;12.75;9.43;;;;;;;;;;2557636;23;20009;-94
2023/08/16 05:03:56;;;;;;;13.30;9.85;;;;;;;;;;2571979;23;20427;-94
2023/08/16 05:04:56;;;;;;;13.48;9.05;;;;;;;;;;2557917;23;20458;-95
2023/08/16 05:06:00;;;;;;;14.98;9.52;;;;;;;;;;2557572;23;20004;-94
2023/08/16 05:07:01;;;;;;;11.32;9.30;;;;;;;;;;2558435;23;20009;-94
2023/08/16 05:08:01;;;;;;;13.18;8.52;;;;;;;;;;2568776;23;20001;-94
2023/08/16 05:09:03;;;;;;;13.18;8.90;;;;;;;;;;2556776;23;20006;-94
2023/08/16 05:10:05;;;;;;;11.50;8.82;;;;;;;;;;2554346;23;19994;-95
2023/08/16 05:11:05;;;;;;;10.75;8.23;;;;;;;;;;2570995;23;19993;-96
2023/08/16 05:12:06;;;;;;;14.32;9.30;;;;;;;;;;2569526;23;20112;-95
2023/08/16 05:13:06;;;;;;;12.07;8.48;;;;;;;;;;2567089;23;20005;-95
2023/08/16 05:14:07;;;;;;;10.43;8.63;;;;;;;;;;2559379;23;20099;-96
2023/08/16 05:15:08;;;;;;;13.32;9.07;;;;;;;;;;2560307;23;20048;-95
2023/08/16 05:16:08;;;;;;;12.20;9.05;;;;;;;;;;2545506;23;20005;-94
2023/08/16 05:17:09;;;;;;;11.02;9.02;;;;;;;;;;2558176;23;20029;-96
2023/08/16 05:18:11;;;;;;;14.43;8.88;;;;;;;;;;2545840;23;20347;-96
2023/08/16 05:19:13;;;;;;;11.32;8.90;;;;;;;;;;2546287;23;20009;-94
2023/08/16 05:20:13;;;;;;;15.13;8.88;;;;;;;;;;2545858;23;20332;-92
2023/08/16 05:21:14;;;;;;;9.43;8.48;;;;;;;;;;2119534;23;10260914;-95
2023/08/16 05:22:15;;;;;;;11.15;8.43;;;;;;;;;;2557436;23;20009;-95
2023/08/16 05:23:15;;;;;;;12.10;8.60;;;;;;;;;;2557949;23;20410;-95
2023/08/16 05:24:17;;;;;;;13.20;8.13;;;;;;;;;;2545375;23;20009;-95
2023/08/16 05:25:20;;;;;;;15.05;8.68;;;;;;;;;;2545605;23;20009;-94
2023/08/16 05:26:20;;;;;;;13.70;8.45;;;;;;;;;;2545750;23;20005;-95
2023/08/16 05:27:20;;;;;;;11.07;9.07;;;;;;;;;;2559108;23;20059;-95
2023/08/16 05:30:17;;;;;;;12.85;8.38;;;;;;;;;;2572269;23;20386;-94
2023/08/16 05:31:18;;;;;;;14.63;8.60;;;;;;;;;;2572224;23;20031;-94
2023/08/16 05:32:18;;;;;;;13.98;9.20;;;;;;;;;;2559654;23;20071;-93
2023/08/16 05:33:19;;;;;;;13.25;9.48;;;;;;;;;;2559835;23;20001;-95
2023/08/16 05:34:20;;;;;;;11.77;8.60;;;;;;;;;;2558905;23;20434;-96
2023/08/16 05:40:18;;;;;;;12.05;9.13;;;;;;;;;;2574213;23;20434;-95
2023/08/16 05:41:18;;;;;;;10.25;8.35;;;;;;;;;;2560379;23;20497;-93
2023/08/16 05:42:19;;;;;;;12.88;8.38;;;;;;;;;;2547941;23;20422;-95
2023/08/16 05:43:23;;;;;;;17.75;10.02;;;;;;;;;;2548113;23;20013;-96
2023/08/16 05:44:23;;;;;;;16.98;11.57;;;;;;;;;;2548970;23;20502;-94
2023/08/16 05:45:28;;;;;;;11.25;8.82;;;;;;;;;;2547622;23;20053;-96
2023/08/16 05:46:28;;;;;;;12.88;9.40;;;;;;;;;;2553471;23;20449;-94
2023/08/16 05:47:29;;;;;;;19.55;10.13;;;;;;;;;;2112991;23;10417388;-96
2023/08/16 05:48:29;;;;;;;11.90;8.82;;;;;;;;;;2561207;23;20522;-94
2023/08/16 05:49:30;;;;;;;11.77;9.23;;;;;;;;;;2557450;23;20149;-95
2023/08/16 05:50:30;;;;;;;13.32;9.35;;;;;;;;;;2561149;23;20065;-96
2023/08/16 05:51:35;;;;;;;12.52;9.02;;;;;;;;;;2559340;23;20016;-96
2023/08/16 05:52:35;;;;;;;12.20;8.27;;;;;;;;;;2548239;23;20001;-95
2023/08/16 05:53:37;;;;;;;12.02;9.63;;;;;;;;;;2562994;23;20017;-96
2023/08/16 05:54:37;;;;;;;14.70;9.00;;;;;;;;;;2581682;22;19977;-93
2023/08/16 05:55:38;;;;;;;11.95;8.50;;;;;;;;;;2585411;22;19988;-96
2023/08/16 05:56:38;;;;;;;12.30;8.18;;;;;;;;;;2578518;22;19996;-96
2023/08/16 05:57:38;;;;;;;9.90;8.40;;;;;;;;;;2558327;23;20039;-95
2023/08/16 05:59:08;;;;;;;11.77;7.72;;;;;;;;;;2545922;23;20430;-96
2023/08/16 06:00:10;;;;;;;10.32;8.23;;;;;;;;;;2555187;23;20390;-96
2023/08/16 06:01:15;;;;;;;10.65;8.35;;;;;;;;;;2559444;23;20001;-96
2023/08/16 06:02:16;;;;;;;13.13;8.10;;;;;;;;;;2548337;23;20009;-96
2023/08/16 06:03:17;;;;;;;9.82;8.52;;;;;;;;;;2545827;23;20016;-95
2023/08/16 06:04:18;;;;;;;11.70;8.45;;;;;;;;;;2545916;23;20355;-96
2023/08/16 06:05:19;;;;;;;10.23;8.45;;;;;;;;;;2547290;23;20005;-96
2023/08/16 06:09:23;;;;;;;17.25;8.38;;;;;;;;;;2572841;23;20019;-96
2023/08/16 06:10:29;;;;;;;11.32;8.20;;;;;;;;;;2557213;23;20096;-94
2023/08/16 06:11:54;;;;;;;9.85;8.07;;;;;;;;;;2546213;23;20462;-95
2023/08/16 06:12:58;;;;;;;12.48;8.43;;;;;;;;;;2565055;23;20070;-95
2023/08/16 06:14:11;;;;;;;13.00;8.57;;;;;;;;;;2558921;23;20008;-96
2023/08/16 06:15:16;;;;;;;10.13;7.95;;;;;;;;;;2549195;23;20444;-96
2023/08/16 06:16:20;;;;;;;11.30;8.15;;;;;;;;;;2547122;23;20089;-96
2023/08/16 06:19:24;;;;;;;10.13;7.78;;;;;;;;;;2559977;23;20091;-95
2023/08/16 06:20:25;;;;;;;13.82;8.27;;;;;;;;;;2547950;23;20060;-96
2023/08/16 06:21:25;;;;;;;13.80;8.30;;;;;;;;;;2548261;23;20008;-95
2023/08/16 06:22:27;;;;;;;13.50;8.90;;;;;;;;;;2558992;23;20047;-96